Terminal Aerodrome Forecast
Issued by NWS

Home | Current Version | Previous Version | Graphics & Text | Print | Product List | Glossary On
Versions: 1 2 3 4 5 6 7 8 9 10 11 12 13 14 15 16 17 18 19 20 21 22 23 24 25 26 27 28 29
000
FTUS43 KLOT 142327
TAFMDW
TAF
KMDW 142327Z 1500/1524 26008KT P6SM SCT050 SCT080 BKN250
     FM150300 21006KT P6SM VCTS SCT040CB BKN080
     FM150700 23006KT P6SM SCT030 BKN060
     FM151200 31006KT 6SM BR BKN025
     FM151600 35007KT P6SM SCT050
     FM152200 04009KT P6SM BKN050=

USA.gov is the U.S. government's official web portal to all federal, state and local government web resources and services.